createdAt,value
2018-05-27T00:00:42.016Z,6.90
2018-05-27T00:03:09.427Z,6.20
2018-05-27T00:05:36.856Z,5.43
2018-05-27T00:08:04.264Z,5.80
2018-05-27T00:10:31.705Z,5.80
2018-05-27T00:12:59.132Z,6.27
2018-05-27T00:15:26.548Z,6.80
2018-05-27T00:17:53.972Z,4.87
2018-05-27T00:20:21.398Z,5.50
2018-05-27T00:22:48.805Z,5.73
2018-05-27T00:25:16.224Z,6.43
2018-05-27T00:27:43.628Z,6.27
2018-05-27T00:30:11.060Z,6.10
2018-05-27T00:32:38.468Z,6.77
2018-05-27T00:35:05.875Z,5.67
2018-05-27T00:37:33.298Z,5.83
2018-05-27T00:40:00.697Z,6.43
2018-05-27T00:42:28.119Z,6.40
2018-05-27T00:44:55.527Z,6.07
2018-05-27T00:47:22.927Z,5.67
2018-05-27T00:49:50.403Z,6.07
2018-05-27T00:52:17.760Z,5.77
2018-05-27T00:54:45.182Z,5.60
2018-05-27T00:57:12.588Z,5.57
2018-05-27T00:59:39.984Z,6.80
2018-05-27T01:02:07.476Z,6.37
2018-05-27T01:04:34.887Z,6.80
2018-05-27T01:07:02.288Z,6.57
2018-05-27T01:09:29.708Z,6.50
2018-05-27T01:11:57.116Z,6.47
2018-05-27T01:14:24.522Z,6.87
2018-05-27T01:16:51.937Z,6.87
2018-05-27T01:19:19.331Z,6.27
2018-05-27T01:21:47.012Z,6.67
2018-05-27T01:24:14.428Z,6.90
2018-05-27T01:26:41.819Z,6.63
2018-05-27T01:29:09.240Z,7.10
2018-05-27T01:31:36.653Z,6.47
2018-05-27T01:34:04.078Z,7.27
2018-05-27T01:36:31.485Z,7.43
2018-05-27T01:38:58.891Z,7.73
2018-05-27T01:41:26.303Z,6.87
2018-05-27T01:43:53.711Z,6.63
2018-05-27T01:46:21.132Z,7.83
2018-05-27T01:48:48.571Z,7.07
2018-05-27T01:51:15.971Z,7.13
2018-05-27T01:53:43.405Z,7.37
2018-05-27T01:56:10.811Z,6.50
2018-05-27T01:58:38.219Z,6.77
2018-05-27T02:01:06.219Z,7.63
2018-05-27T02:03:33.618Z,7.67
2018-05-27T02:06:01.024Z,7.90
2018-05-27T02:08:28.445Z,7.20
2018-05-27T02:10:55.847Z,7.97
2018-05-27T02:13:23.269Z,7.03
2018-05-27T02:15:50.679Z,7.60
2018-05-27T02:18:18.420Z,7.37
2018-05-27T02:20:45.829Z,7.63
2018-05-27T02:23:13.227Z,7.33
2018-05-27T02:25:40.653Z,7.77
2018-05-27T02:28:08.077Z,8.40
2018-05-27T02:30:35.489Z,7.67
2018-05-27T02:33:02.904Z,8.00
2018-05-27T02:35:30.316Z,7.10
2018-05-27T02:37:57.739Z,7.50
2018-05-27T02:40:25.140Z,6.83
2018-05-27T02:42:52.535Z,6.60
2018-05-27T02:45:19.961Z,6.90
2018-05-27T02:47:47.380Z,7.47
2018-05-27T02:50:14.785Z,7.37
2018-05-27T02:52:42.200Z,8.67
2018-05-27T02:55:09.604Z,7.77
2018-05-27T02:57:37.021Z,8.97
2018-05-27T03:00:04.453Z,8.53
2018-05-27T03:02:31.849Z,8.13
2018-05-27T03:04:59.268Z,8.00
2018-05-27T03:07:26.672Z,8.20
2018-05-27T03:09:54.079Z,9.60
2018-05-27T03:12:21.497Z,8.80
2018-05-27T03:14:48.900Z,8.00
2018-05-27T03:17:16.685Z,9.17
2018-05-27T03:19:44.109Z,7.80
2018-05-27T03:22:11.519Z,12.90
2018-05-27T03:24:38.944Z,8.93
2018-05-27T03:27:06.366Z,7.80
2018-05-27T03:29:33.772Z,8.20
2018-05-27T03:32:01.184Z,8.47
2018-05-27T03:34:28.644Z,9.80
2018-05-27T03:36:56.077Z,8.60
2018-05-27T03:39:23.539Z,8.27
2018-05-27T03:41:51.021Z,8.33
2018-05-27T03:44:18.498Z,7.50
2018-05-27T03:46:45.904Z,7.77
2018-05-27T03:49:13.313Z,7.77
2018-05-27T03:51:40.737Z,7.43
2018-05-27T03:54:08.136Z,7.93
2018-05-27T03:56:35.548Z,7.30
2018-05-27T03:59:03.815Z,7.47
2018-05-27T04:01:31.437Z,7.40
2018-05-27T04:04:10.608Z,8.17
2018-05-27T04:06:49.697Z,7.67
2018-05-27T04:09:17.095Z,7.80
2018-05-27T04:11:44.668Z,7.97
2018-05-27T04:14:12.071Z,7.40
2018-05-27T04:16:39.480Z,7.43
2018-05-27T04:19:06.899Z,7.80
2018-05-27T04:21:34.295Z,7.20
2018-05-27T04:24:01.720Z,7.43
2018-05-27T04:26:29.150Z,7.63
2018-05-27T04:28:56.594Z,8.93
2018-05-27T04:31:24.120Z,7.87
2018-05-27T04:33:51.575Z,7.20
2018-05-27T04:36:19.006Z,6.00
2018-05-27T04:38:46.427Z,6.83
2018-05-27T04:41:13.849Z,6.90
2018-05-27T04:43:41.261Z,6.62
2018-05-27T04:46:08.680Z,6.87
2018-05-27T04:48:36.117Z,5.78
2018-05-27T04:51:03.540Z,6.40
2018-05-27T04:53:30.956Z,5.75
2018-05-27T04:55:58.355Z,6.07
2018-05-27T04:58:25.772Z,5.60
2018-05-27T05:00:53.175Z,6.22
2018-05-27T05:03:20.608Z,6.10
2018-05-27T05:05:48.016Z,5.72
2018-05-27T05:08:15.432Z,6.05
2018-05-27T05:10:42.859Z,5.68
2018-05-27T05:13:10.261Z,5.93
2018-05-27T05:15:37.661Z,5.85
2018-05-27T05:18:05.083Z,5.85
2018-05-27T05:20:32.491Z,5.72
2018-05-27T05:22:59.910Z,5.75
2018-05-27T05:25:27.322Z,5.15
2018-05-27T05:27:54.735Z,5.60
2018-05-27T05:30:22.190Z,5.37
2018-05-27T05:32:49.636Z,5.20
2018-05-27T05:35:17.079Z,6.18
2018-05-27T05:37:44.495Z,5.15
2018-05-27T05:40:12.252Z,5.28
2018-05-27T05:42:39.664Z,5.35
2018-05-27T05:45:07.074Z,5.20
2018-05-27T05:47:34.498Z,5.75
2018-05-27T05:50:01.925Z,5.50
2018-05-27T05:52:29.498Z,5.30
2018-05-27T05:54:56.916Z,5.37
2018-05-27T05:57:24.324Z,4.50
2018-05-27T05:59:51.751Z,4.55
2018-05-27T06:02:19.148Z,5.53
2018-05-27T06:04:46.573Z,5.47
2018-05-27T06:07:13.984Z,4.90
2018-05-27T06:09:41.388Z,5.30
2018-05-27T06:12:08.820Z,4.85
2018-05-27T06:14:36.224Z,7.00
2018-05-27T06:17:03.988Z,5.55
2018-05-27T06:19:31.420Z,5.28
2018-05-27T06:21:58.816Z,5.53
2018-05-27T06:24:26.231Z,4.90
2018-05-27T06:26:53.652Z,5.18
2018-05-27T06:29:21.056Z,5.12
2018-05-27T06:31:48.717Z,5.32
2018-05-27T06:34:16.124Z,5.60
2018-05-27T06:36:43.528Z,5.30
2018-05-27T06:39:11.211Z,6.05
2018-05-27T06:41:38.632Z,4.95
2018-05-27T06:44:06.047Z,5.50
2018-05-27T06:46:33.452Z,4.62
2018-05-27T06:49:00.877Z,5.32
2018-05-27T06:51:28.280Z,5.20
2018-05-27T06:53:55.709Z,5.43
2018-05-27T06:56:23.412Z,5.62
2018-05-27T06:58:50.839Z,4.90
2018-05-27T07:01:18.263Z,5.30
2018-05-27T07:03:45.697Z,5.90
2018-05-27T07:06:13.103Z,5.78
2018-05-27T07:08:40.524Z,5.75
2018-05-27T07:11:07.931Z,5.43
2018-05-27T07:13:35.339Z,6.40
2018-05-27T07:16:02.761Z,5.95
2018-05-27T07:18:30.192Z,5.80
2018-05-27T07:20:57.751Z,4.95
2018-05-27T07:23:25.160Z,5.87
2018-05-27T07:25:52.569Z,5.62
2018-05-27T07:28:19.989Z,5.25
2018-05-27T07:30:47.397Z,5.37
2018-05-27T07:33:14.822Z,5.72
2018-05-27T07:35:42.225Z,5.60
2018-05-27T07:38:09.892Z,5.93
2018-05-27T07:40:37.298Z,5.72
2018-05-27T07:43:04.700Z,6.05
2018-05-27T07:45:32.112Z,5.65
2018-05-27T07:47:59.520Z,6.57
2018-05-27T07:50:26.928Z,5.97
2018-05-27T07:52:54.348Z,5.72
2018-05-27T07:55:21.824Z,6.30
2018-05-27T07:57:49.229Z,5.80
2018-05-27T08:00:16.667Z,5.80
2018-05-27T08:02:44.089Z,6.15
2018-05-27T08:05:11.662Z,6.80
2018-05-27T08:07:39.073Z,6.22
2018-05-27T08:10:06.479Z,6.80
2018-05-27T08:12:33.899Z,5.78
2018-05-27T08:15:01.316Z,7.15
2018-05-27T08:17:28.755Z,6.22
2018-05-27T08:19:56.504Z,6.68
2018-05-27T08:22:23.911Z,6.30
2018-05-27T08:24:51.391Z,5.35
2018-05-27T08:27:18.813Z,6.28
2018-05-27T08:29:46.288Z,6.10
2018-05-27T08:32:13.709Z,6.68
2018-05-27T08:34:41.124Z,6.47
2018-05-27T08:37:08.546Z,6.95
2018-05-27T08:39:35.960Z,6.93
2018-05-27T08:42:03.392Z,6.32
2018-05-27T08:44:30.818Z,7.32
2018-05-27T08:46:58.250Z,6.95
2018-05-27T08:49:25.692Z,7.18
2018-05-27T08:51:53.658Z,7.75
2018-05-27T08:54:23.197Z,7.97
2018-05-27T08:56:50.749Z,8.15
2018-05-27T08:59:19.069Z,7.20
2018-05-27T09:01:46.835Z,7.45
2018-05-27T09:04:14.493Z,6.95
2018-05-27T09:06:43.217Z,8.13
2018-05-27T09:09:10.880Z,7.40
2018-05-27T09:11:38.303Z,6.85
2018-05-27T09:14:05.712Z,6.72
2018-05-27T09:16:35.187Z,7.62
2018-05-27T09:19:02.621Z,7.47
2018-05-27T09:21:30.080Z,6.93
2018-05-27T09:23:57.515Z,6.05
2018-05-27T09:26:24.928Z,5.82
2018-05-27T09:28:52.467Z,6.37
2018-05-27T09:31:20.035Z,6.80
2018-05-27T09:33:47.467Z,7.12
2018-05-27T09:36:14.883Z,6.62
2018-05-27T09:38:42.304Z,5.90
2018-05-27T09:41:10.737Z,6.70
2018-05-27T09:43:38.147Z,5.25
2018-05-27T09:46:05.556Z,6.05
2018-05-27T09:48:32.987Z,5.75
2018-05-27T09:51:00.408Z,5.57
2018-05-27T09:53:27.828Z,5.35
2018-05-27T09:55:55.234Z,6.28
2018-05-27T09:58:22.649Z,5.55
2018-05-27T10:00:50.151Z,6.03
2018-05-27T10:03:17.591Z,5.90
2018-05-27T10:05:45.046Z,5.60
2018-05-27T10:08:12.445Z,5.47
2018-05-27T10:10:39.877Z,5.45
2018-05-27T10:13:07.312Z,6.07
2018-05-27T10:15:35.508Z,5.87
2018-05-27T10:18:03.043Z,6.18
2018-05-27T10:20:30.463Z,5.90
2018-05-27T10:22:57.891Z,6.60
2018-05-27T10:25:25.321Z,5.20
2018-05-27T10:27:52.827Z,6.07
2018-05-27T10:30:20.235Z,6.00
2018-05-27T10:32:47.772Z,6.45
2018-05-27T10:35:15.136Z,5.87
2018-05-27T10:37:42.543Z,5.47
2018-05-27T10:40:09.969Z,6.25
2018-05-27T10:42:37.427Z,5.70
2018-05-27T10:45:04.853Z,6.32
2018-05-27T10:47:32.283Z,5.90
2018-05-27T10:49:59.729Z,6.12
2018-05-27T10:52:27.245Z,6.45
2018-05-27T10:54:54.691Z,6.20
2018-05-27T10:57:22.131Z,6.47
2018-05-27T10:59:49.593Z,5.90
2018-05-27T11:02:16.980Z,6.07
2018-05-27T11:04:44.376Z,6.05
2018-05-27T11:07:11.798Z,6.22
2018-05-27T11:09:39.225Z,6.40
2018-05-27T11:12:06.648Z,6.07
2018-05-27T11:14:34.169Z,6.00
2018-05-27T11:17:01.623Z,6.40
2018-05-27T11:19:29.071Z,5.95
2018-05-27T11:21:56.574Z,6.15
2018-05-27T11:24:24.097Z,6.03
2018-05-27T11:26:51.834Z,6.37
2018-05-27T11:29:19.852Z,5.53
2018-05-27T11:31:47.723Z,5.55
2018-05-27T11:34:16.057Z,5.32
2018-05-27T11:36:43.568Z,5.62
2018-05-27T11:39:10.997Z,6.12
2018-05-27T11:41:38.413Z,6.32
2018-05-27T11:44:05.836Z,5.78
2018-05-27T11:46:33.252Z,6.22
2018-05-27T11:49:00.759Z,5.75
2018-05-27T11:51:28.200Z,6.28
2018-05-27T11:53:55.699Z,5.95
2018-05-27T11:56:23.206Z,6.00
2018-05-27T11:58:50.650Z,6.12
2018-05-27T12:01:18.068Z,5.80
2018-05-27T12:03:45.870Z,5.78
2018-05-27T12:06:13.288Z,6.22
2018-05-27T12:08:40.697Z,5.87
2018-05-27T12:11:08.120Z,5.93
2018-05-27T12:13:35.532Z,6.50
2018-05-27T12:16:03.000Z,7.53
2018-05-27T12:18:30.410Z,5.80
2018-05-27T12:20:57.829Z,6.72
2018-05-27T12:23:25.342Z,5.40
2018-05-27T12:25:52.798Z,6.62
2018-05-27T12:28:20.218Z,6.45
2018-05-27T12:30:47.649Z,6.40
2018-05-27T12:33:15.072Z,6.20
2018-05-27T12:35:42.500Z,5.65
2018-05-27T12:38:09.912Z,5.93
2018-05-27T12:40:37.332Z,6.30
2018-05-27T12:43:04.755Z,6.22
2018-05-27T12:45:32.187Z,6.95
2018-05-27T12:47:59.652Z,6.25
2018-05-27T12:50:27.104Z,6.10
2018-05-27T12:52:54.570Z,5.47
2018-05-27T12:55:22.042Z,7.05
2018-05-27T12:57:49.468Z,6.22
2018-05-27T13:00:16.894Z,6.47
2018-05-27T13:02:44.304Z,6.72
2018-05-27T13:05:11.743Z,6.95
2018-05-27T13:07:39.152Z,6.32
2018-05-27T13:10:06.568Z,6.65
2018-05-27T13:12:34.005Z,6.30
2018-05-27T13:15:01.460Z,6.30
2018-05-27T13:17:28.918Z,5.78
2018-05-27T13:19:56.401Z,5.93
2018-05-27T13:22:23.887Z,5.95
2018-05-27T13:24:51.330Z,6.35
2018-05-27T13:27:18.727Z,5.85
2018-05-27T13:29:46.253Z,6.30
2018-05-27T13:32:13.668Z,5.80
2018-05-27T13:34:41.111Z,6.05
2018-05-27T13:37:08.543Z,6.10
2018-05-27T13:39:35.944Z,6.05
2018-05-27T13:42:03.631Z,6.37
2018-05-27T13:44:31.039Z,5.78
2018-05-27T13:46:58.504Z,6.07
2018-05-27T13:49:25.979Z,5.90
2018-05-27T13:51:53.548Z,6.12
2018-05-27T13:54:21.114Z,6.47
2018-05-27T13:56:48.559Z,6.03
2018-05-27T13:59:15.972Z,6.28
2018-05-27T14:01:43.404Z,6.72
2018-05-27T14:04:10.817Z,6.18
2018-05-27T14:06:38.253Z,5.78
2018-05-27T14:09:05.679Z,6.07
2018-05-27T14:11:33.124Z,5.87
2018-05-27T14:14:00.633Z,5.53
2018-05-27T14:16:28.184Z,6.60
2018-05-27T14:18:55.676Z,5.90
2018-05-27T14:21:23.148Z,5.87
2018-05-27T14:23:50.822Z,6.60
2018-05-27T14:26:18.239Z,5.70
2018-05-27T14:28:45.698Z,6.68
2018-05-27T14:31:13.184Z,6.60
2018-05-27T14:33:40.599Z,6.20
2018-05-27T14:36:08.015Z,5.62
2018-05-27T14:38:35.475Z,6.40
2018-05-27T14:41:02.976Z,6.50
2018-05-27T14:43:30.461Z,5.62
2018-05-27T14:45:57.938Z,6.85
2018-05-27T14:48:25.368Z,6.22
2018-05-27T14:50:52.887Z,6.75
2018-05-27T14:53:20.325Z,6.37
2018-05-27T14:55:47.760Z,6.45
2018-05-27T14:58:15.164Z,6.20
2018-05-27T15:00:42.877Z,6.18
2018-05-27T15:03:10.285Z,5.75
2018-05-27T15:05:37.699Z,5.87
2018-05-27T15:08:05.421Z,5.95
2018-05-27T15:10:32.831Z,6.80
2018-05-27T15:13:00.318Z,6.00
2018-05-27T15:15:27.830Z,6.80
2018-05-27T15:17:55.360Z,6.65
2018-05-27T15:20:22.874Z,6.78
2018-05-27T15:22:50.350Z,6.35
2018-05-27T15:25:17.877Z,7.03
2018-05-27T15:27:45.249Z,7.15
2018-05-27T15:30:12.666Z,7.32
2018-05-27T15:32:40.094Z,6.78
2018-05-27T15:35:07.516Z,6.68
2018-05-27T15:37:35.225Z,6.30
2018-05-27T15:40:02.641Z,6.72
2018-05-27T15:42:30.076Z,6.95
2018-05-27T15:44:57.603Z,6.72
2018-05-27T15:47:25.050Z,6.22
2018-05-27T15:49:52.584Z,6.55
2018-05-27T15:52:19.999Z,5.37
2018-05-27T15:54:47.501Z,5.55
2018-05-27T15:57:14.928Z,5.50
2018-05-27T15:59:42.362Z,6.03
2018-05-27T16:02:09.762Z,5.22
2018-05-27T16:09:29.630Z,5.87
2018-05-27T16:11:57.352Z,7.82
2018-05-27T16:14:24.854Z,7.37
2018-05-27T16:16:52.337Z,9.10
2018-05-27T16:19:19.786Z,6.82
2018-05-27T16:21:47.218Z,6.50
2018-05-27T16:24:14.786Z,5.40
2018-05-27T16:26:42.188Z,6.53
2018-05-27T16:29:09.595Z,6.00
2018-05-27T16:31:37.024Z,7.12
2018-05-27T16:34:04.434Z,5.87
2018-05-27T16:36:31.874Z,11.07
2018-05-27T16:38:59.295Z,6.55
2018-05-27T16:41:26.741Z,6.20
2018-05-27T16:43:54.488Z,6.90
2018-05-27T16:46:21.958Z,8.77
2018-05-27T16:48:49.368Z,8.47
2018-05-27T16:51:17.128Z,7.93
2018-05-27T16:53:44.547Z,9.20
2018-05-27T16:56:11.978Z,10.00
2018-05-27T16:58:39.404Z,10.20
2018-05-27T17:01:06.835Z,10.50
2018-05-27T17:03:34.240Z,9.57
2018-05-27T17:06:01.660Z,9.43
2018-05-27T17:08:29.121Z,7.50
2018-05-27T17:10:56.707Z,7.30
2018-05-27T17:13:24.153Z,8.13
2018-05-27T17:15:51.842Z,7.17
2018-05-27T17:18:19.445Z,7.97
2018-05-27T17:20:46.892Z,8.63
2018-05-27T17:23:14.304Z,8.83
2018-05-27T17:25:41.729Z,8.63
2018-05-27T17:28:09.236Z,9.70
2018-05-27T17:30:36.619Z,8.90
2018-05-27T17:33:04.064Z,8.98
2018-05-27T17:35:31.481Z,9.05
2018-05-27T17:37:58.924Z,9.05
2018-05-27T17:40:26.402Z,8.43
2018-05-27T17:42:53.842Z,8.00
2018-05-27T17:45:21.364Z,9.93
2018-05-27T17:47:48.792Z,9.50
2018-05-27T17:50:16.224Z,8.73
2018-05-27T17:52:43.655Z,9.47
2018-05-27T17:55:11.064Z,8.90
2018-05-27T17:57:38.583Z,9.15
2018-05-27T18:00:06.009Z,9.43
2018-05-27T18:02:33.436Z,8.60
2018-05-27T18:05:00.897Z,9.23
2018-05-27T18:07:28.358Z,10.02
2018-05-27T18:09:55.885Z,9.90
2018-05-27T18:12:23.437Z,10.20
2018-05-27T18:14:51.021Z,10.30
2018-05-27T18:17:18.439Z,11.07
2018-05-27T18:19:45.856Z,11.38
2018-05-27T18:22:13.313Z,10.70
2018-05-27T18:24:40.738Z,12.35
2018-05-27T18:27:08.155Z,11.43
2018-05-27T18:29:35.584Z,12.43
2018-05-27T18:32:03.027Z,12.23
2018-05-27T18:34:30.468Z,10.73
2018-05-27T18:36:57.913Z,10.93
2018-05-27T18:39:25.359Z,11.37
2018-05-27T18:41:53.068Z,11.50
2018-05-27T18:44:20.556Z,11.83
2018-05-27T18:46:47.997Z,11.40
2018-05-27T18:49:15.453Z,10.37
2018-05-27T18:51:42.864Z,11.03
2018-05-27T18:54:10.301Z,11.70
2018-05-27T18:56:37.709Z,11.40
2018-05-27T18:59:05.191Z,12.57
2018-05-27T19:01:32.560Z,11.97
2018-05-27T19:04:00.014Z,11.67
2018-05-27T19:06:27.463Z,11.70
2018-05-27T19:08:54.948Z,12.00
2018-05-27T19:11:22.465Z,12.10
2018-05-27T19:13:49.888Z,10.83
2018-05-27T19:16:17.310Z,11.43
2018-05-27T19:18:44.846Z,11.30
2018-05-27T19:21:12.257Z,11.43
2018-05-27T19:23:39.668Z,12.47
2018-05-27T19:26:07.269Z,11.73
2018-05-27T19:28:34.684Z,11.70
2018-05-27T19:31:02.176Z,11.80
2018-05-27T19:33:29.672Z,12.47
2018-05-27T19:35:57.147Z,12.90
2018-05-27T19:38:24.599Z,12.80
2018-05-27T19:40:52.069Z,11.87
2018-05-27T19:43:19.492Z,12.03
2018-05-27T19:45:46.917Z,12.27
2018-05-27T19:48:14.358Z,12.93
2018-05-27T19:50:41.763Z,14.30
2018-05-27T19:53:09.197Z,13.77
2018-05-27T19:55:36.632Z,13.30
2018-05-27T19:58:04.064Z,14.17
2018-05-27T20:00:31.487Z,14.00
2018-05-27T20:02:58.902Z,13.37
2018-05-27T20:05:26.389Z,14.03
2018-05-27T20:07:53.849Z,13.40
2018-05-27T20:10:21.379Z,14.53
2018-05-27T20:12:48.803Z,15.13
2018-05-27T20:15:16.223Z,14.33
2018-05-27T20:17:44.095Z,13.80
2018-05-27T20:20:11.509Z,15.87
2018-05-27T20:22:38.923Z,14.77
2018-05-27T20:25:06.357Z,15.33
2018-05-27T20:27:33.845Z,15.10
2018-05-27T20:30:01.288Z,16.47
2018-05-27T20:32:28.831Z,14.23
2018-05-27T20:34:56.313Z,16.90
2018-05-27T20:37:23.821Z,15.80
2018-05-27T20:39:51.380Z,16.40
2018-05-27T20:42:18.813Z,15.40
2018-05-27T20:44:46.245Z,15.03
2018-05-27T20:47:13.660Z,15.03
2018-05-27T20:49:41.088Z,15.47
2018-05-27T20:52:08.547Z,14.17
2018-05-27T20:54:36.182Z,13.40
2018-05-27T20:57:03.693Z,17.27
2018-05-27T20:59:31.136Z,15.93
2018-05-27T21:01:58.660Z,15.97
2018-05-27T21:04:26.136Z,14.80
2018-05-27T21:06:54.003Z,15.00
2018-05-27T21:09:21.603Z,14.33
2018-05-27T21:11:49.101Z,14.20
2018-05-27T21:14:16.863Z,13.60
2018-05-27T21:16:44.281Z,14.20
2018-05-27T21:19:11.695Z,13.17
2018-05-27T21:21:39.149Z,14.10
2018-05-27T21:24:06.564Z,13.50
2018-05-27T21:26:34.104Z,12.77
2018-05-27T21:29:01.678Z,13.10
2018-05-27T21:31:29.127Z,13.37
2018-05-27T21:33:56.573Z,15.00
2018-05-27T21:36:24.046Z,14.77
2018-05-27T21:38:51.476Z,15.60
2018-05-27T21:41:18.913Z,15.30
2018-05-27T21:43:46.329Z,15.00
2018-05-27T21:46:14.092Z,14.87
2018-05-27T21:48:41.552Z,16.27
2018-05-27T21:51:09.027Z,16.23
2018-05-27T21:53:36.473Z,15.70
2018-05-27T21:56:03.902Z,13.40
2018-05-27T21:58:31.348Z,13.70
2018-05-27T22:00:58.808Z,14.17
2018-05-27T22:03:26.339Z,14.70
2018-05-27T22:05:53.827Z,16.07
2018-05-27T22:08:21.401Z,14.73
2018-05-27T22:10:48.852Z,18.17
2018-05-27T22:13:16.274Z,17.97
2018-05-27T22:15:43.704Z,16.67
2018-05-27T22:18:11.124Z,17.00
2018-05-27T22:20:38.699Z,20.10
2018-05-27T22:23:06.129Z,20.10
2018-05-27T22:25:33.535Z,21.37
2018-05-27T22:28:00.969Z,18.10
2018-05-27T22:30:28.441Z,16.63
2018-05-27T22:32:55.896Z,15.87
2018-05-27T22:35:23.401Z,16.50
2018-05-27T22:37:50.859Z,17.10
2018-05-27T22:40:18.294Z,18.30
2018-05-27T22:42:45.740Z,18.80
2018-05-27T22:45:13.187Z,18.50
2018-05-27T22:47:40.603Z,20.23
2018-05-27T22:50:08.019Z,19.33
2018-05-27T22:52:35.748Z,20.80
2018-05-27T22:55:03.169Z,19.77
2018-05-27T22:57:30.592Z,21.70
2018-05-27T22:59:58.176Z,19.73
2018-05-27T23:02:25.641Z,21.43
2018-05-27T23:04:53.118Z,17.37
2018-05-27T23:07:20.606Z,17.13
2018-05-27T23:09:48.052Z,17.63
2018-05-27T23:12:15.564Z,17.33
2018-05-27T23:14:42.983Z,18.83
2018-05-27T23:17:10.397Z,17.23
2018-05-27T23:19:38.077Z,20.53
2018-05-27T23:22:05.488Z,22.37
2018-05-27T23:24:32.908Z,18.87
2018-05-27T23:27:00.542Z,19.37
2018-05-27T23:29:27.986Z,17.87
2018-05-27T23:31:55.457Z,16.27
2018-05-27T23:34:22.930Z,20.27
2018-05-27T23:36:50.351Z,19.63
2018-05-27T23:39:17.799Z,19.00
2018-05-27T23:41:45.253Z,19.67
2018-05-27T23:44:12.661Z,20.37
2018-05-27T23:46:40.093Z,20.50
2018-05-27T23:49:07.529Z,22.33
2018-05-27T23:51:34.977Z,23.37
2018-05-27T23:54:02.389Z,21.83
2018-05-27T23:56:29.857Z,22.20
2018-05-27T23:58:57.331Z,20.20
